createdAt,value
2022-08-01T00:00:30.858Z,101243.25
2022-08-01T00:02:56.553Z,101253.25
2022-08-01T00:05:22.225Z,101244.38
2022-08-01T00:07:47.850Z,101238.84
2022-08-01T00:10:14.968Z,101240.47
2022-08-01T00:12:41.247Z,101245.22
2022-08-01T00:15:08.685Z,101246.03
2022-08-01T00:17:34.929Z,101234.09
2022-08-01T00:20:01.397Z,101245.22
2022-08-01T00:22:27.028Z,101245.22
2022-08-01T00:24:52.661Z,101245.22
2022-08-01T00:27:18.297Z,101241.59
2022-08-01T00:30:12.816Z,101247.97
2022-08-01T00:32:31.672Z,101255.50
2022-08-01T00:34:57.298Z,101253.53
2022-08-01T00:37:22.949Z,101253.53
2022-08-01T00:39:48.629Z,101250.75
2022-08-01T00:42:14.264Z,101249.13
2022-08-01T00:44:40.132Z,101247.16
2022-08-01T00:47:06.092Z,101247.97
2022-08-01T00:49:31.859Z,101246.03
2022-08-01T00:51:58.542Z,101251.59
2022-08-01T00:54:26.492Z,101240.47
2022-08-01T00:56:52.742Z,101244.38
2022-08-01T00:59:18.598Z,101242.44
2022-08-01T01:01:46.707Z,101242.44
2022-08-01T01:04:13.049Z,101239.66
2022-08-01T01:07:07.359Z,101238.00
2022-08-01T01:09:46.308Z,101228.56
2022-08-01T01:15:07.861Z,101236.06
2022-08-01T01:17:50.981Z,101236.88
2022-08-01T01:20:17.926Z,101236.06
2022-08-01T01:22:54.030Z,101231.31
2022-08-01T01:25:42.061Z,101229.38
2022-08-01T01:28:10.392Z,101231.31
2022-08-01T01:30:37.833Z,101245.22
2022-08-01T01:33:06.498Z,101244.38
2022-08-01T01:35:34.769Z,101245.22
2022-08-01T01:38:01.967Z,101241.59
2022-08-01T01:40:28.385Z,101251.88
2022-08-01T01:42:55.841Z,101239.13
2022-08-01T01:45:23.901Z,101249.94
2022-08-01T01:47:49.548Z,101241.59
2022-08-01T01:50:15.302Z,101247.16
2022-08-01T01:52:42.596Z,101244.38
2022-08-01T01:55:09.161Z,101247.16
2022-08-01T01:57:39.438Z,101251.88
2022-08-01T02:00:07.461Z,101251.06
2022-08-01T02:02:34.250Z,101255.50
2022-08-01T02:05:00.660Z,101249.94
2022-08-01T02:07:27.604Z,101241.59
2022-08-01T02:09:54.361Z,101240.78
2022-08-01T02:12:21.799Z,101246.03
2022-08-01T02:14:48.692Z,101247.97
2022-08-01T02:17:16.931Z,101248.28
2022-08-01T02:19:42.476Z,101245.22
2022-08-01T02:22:11.053Z,101234.41
2022-08-01T02:24:41.569Z,101238.00
2022-08-01T02:27:09.802Z,101244.38
2022-08-01T02:29:37.397Z,101229.69
2022-08-01T02:32:05.260Z,101226.09
2022-08-01T02:34:32.506Z,101230.50
2022-08-01T02:36:59.258Z,101220.53
2022-08-01T02:39:26.982Z,101229.69
2022-08-01T02:41:57.929Z,101224.13
2022-08-01T02:44:25.365Z,101230.50
2022-08-01T02:46:56.666Z,101229.38
2022-08-01T02:49:23.225Z,101230.50
2022-08-01T02:51:49.379Z,101230.81
2022-08-01T02:54:18.108Z,101229.69
2022-08-01T02:56:44.258Z,101230.50
2022-08-01T02:59:14.644Z,101233.28
2022-08-01T03:01:41.977Z,101230.50
2022-08-01T03:04:08.147Z,101233.28
2022-08-01T03:06:34.095Z,101226.91
2022-08-01T03:09:02.093Z,101230.50
2022-08-01T03:11:28.570Z,101227.72
2022-08-01T03:13:55.638Z,101232.47
2022-08-01T03:16:22.966Z,101238.84
2022-08-01T03:18:49.842Z,101236.88
2022-08-01T03:21:15.782Z,101229.69
2022-08-01T03:23:42.014Z,101236.88
2022-08-01T03:26:08.368Z,101244.38
2022-08-01T03:28:34.045Z,101247.16
2022-08-01T03:31:00.459Z,101243.56
2022-08-01T03:33:26.646Z,101252.72
2022-08-01T03:35:53.934Z,101243.56
2022-08-01T03:38:24.129Z,101249.13
2022-08-01T03:40:53.922Z,101245.50
2022-08-01T03:43:23.479Z,101246.34
2022-08-01T03:45:51.787Z,101247.16
2022-08-01T03:48:18.426Z,101247.97
2022-08-01T03:50:47.117Z,101244.38
2022-08-01T03:53:13.607Z,101243.56
2022-08-01T03:55:39.791Z,101247.16
2022-08-01T03:58:09.718Z,101247.16
2022-08-01T04:00:38.838Z,101249.13
2022-08-01T04:03:05.009Z,101251.88
2022-08-01T04:05:31.539Z,101251.88
2022-08-01T04:07:57.455Z,101253.03
2022-08-01T04:10:24.044Z,101252.72
2022-08-01T04:12:50.091Z,101247.97
2022-08-01T04:15:15.791Z,101253.84
2022-08-01T04:17:41.458Z,101251.88
2022-08-01T04:20:07.550Z,101248.28
2022-08-01T04:22:37.461Z,101245.50
2022-08-01T04:25:08.338Z,101249.13
2022-08-01T04:27:48.406Z,101257.44
2022-08-01T04:30:18.538Z,101257.44
2022-08-01T04:32:47.179Z,101263.81
2022-08-01T04:35:22.782Z,101262.16
2022-08-01T04:38:02.999Z,101263.00
2022-08-01T04:40:28.877Z,101264.94
2022-08-01T04:42:54.633Z,101259.41
2022-08-01T04:45:21.342Z,101266.59
2022-08-01T04:47:48.034Z,101270.50
2022-08-01T04:50:13.778Z,101279.66
2022-08-01T04:52:42.219Z,101278.81
2022-08-01T04:55:08.497Z,101283.56
2022-08-01T04:57:36.919Z,101283.56
2022-08-01T05:00:03.797Z,101287.16
2022-08-01T05:02:29.418Z,101290.75
2022-08-01T05:04:56.340Z,101291.56
2022-08-01T05:07:21.982Z,101287.97
2022-08-01T05:09:47.758Z,101287.16
2022-08-01T05:12:13.408Z,101282.41
2022-08-01T05:14:39.254Z,101287.97
2022-08-01T05:17:07.124Z,101287.16
2022-08-01T05:19:34.623Z,101289.09
2022-08-01T05:22:01.476Z,101299.06
2022-08-01T05:24:28.587Z,101294.66
2022-08-01T05:26:55.454Z,101296.28
2022-08-01T05:29:21.094Z,101291.06
2022-08-01T05:31:46.715Z,101297.44
2022-08-01T05:34:15.076Z,101300.19
2022-08-01T05:36:41.168Z,101301.03
2022-08-01T05:39:06.786Z,101306.28
2022-08-01T05:41:32.434Z,101302.16
2022-08-01T05:43:58.138Z,101305.44
2022-08-01T05:46:23.765Z,101309.34
2022-08-01T05:48:53.190Z,101312.13
2022-08-01T05:51:19.373Z,101320.47
2022-08-01T05:53:45.006Z,101317.69
2022-08-01T05:56:10.631Z,101321.28
2022-08-01T05:58:36.260Z,101316.84
2022-08-01T06:01:01.890Z,101315.72
2022-08-01T06:03:31.211Z,101317.69
2022-08-01T06:05:57.651Z,101312.13
2022-08-01T06:08:23.301Z,101320.47
2022-08-01T06:10:49.075Z,101318.50
2022-08-01T06:13:14.743Z,101321.28
2022-08-01T06:15:40.407Z,101314.09
2022-08-01T06:18:06.040Z,101316.56
2022-08-01T06:20:31.720Z,101312.13
2022-08-01T06:22:57.387Z,101304.09
2022-08-01T06:25:25.572Z,101308.53
2022-08-01T06:27:51.196Z,101308.81
2022-08-01T06:30:16.844Z,101312.13
2022-08-01T06:32:42.464Z,101307.72
2022-08-01T06:35:08.389Z,101314.09
2022-08-01T06:37:34.011Z,101306.56
2022-08-01T06:40:04.624Z,101308.53
2022-08-01T06:42:35.287Z,101314.09
2022-08-01T06:45:03.891Z,101309.34
2022-08-01T06:47:29.514Z,101308.53
2022-08-01T06:49:55.169Z,101316.84
2022-08-01T06:52:20.792Z,101315.72
2022-08-01T06:54:46.763Z,101308.53
2022-08-01T06:57:12.443Z,101314.09
2022-08-01T06:59:38.290Z,101312.94
2022-08-01T07:02:04.434Z,101319.63
2022-08-01T07:04:30.339Z,101312.13
2022-08-01T07:06:56.595Z,101315.72
2022-08-01T07:09:22.219Z,101314.09
2022-08-01T07:11:47.863Z,101311.31
2022-08-01T07:14:13.482Z,101314.91
2022-08-01T07:16:39.124Z,101316.84
2022-08-01T07:19:04.780Z,101314.91
2022-08-01T07:21:40.650Z,101313.78
2022-08-01T07:24:13.325Z,101311.00
2022-08-01T07:26:52.190Z,101311.81
2022-08-01T07:29:23.155Z,101312.94
2022-08-01T07:31:48.785Z,101308.22
2022-08-01T07:34:14.429Z,101311.00
2022-08-01T07:36:40.054Z,101317.38
2022-08-01T07:39:05.679Z,101322.94
2022-08-01T07:42:06.503Z,101325.44
2022-08-01T07:44:16.912Z,101329.31
2022-08-01T07:46:42.545Z,101326.25
2022-08-01T07:49:08.338Z,101332.06
2022-08-01T07:51:33.975Z,101330.44
2022-08-01T07:53:59.606Z,101336.81
2022-08-01T07:56:26.334Z,101337.63
2022-08-01T07:58:51.991Z,101336.81
2022-08-01T08:01:18.089Z,101332.91
2022-08-01T08:03:43.746Z,101337.34
2022-08-01T08:06:09.379Z,101335.69
2022-08-01T08:08:35.030Z,101334.59
2022-08-01T08:11:01.198Z,101326.53
2022-08-01T08:13:26.979Z,101341.53
2022-08-01T08:15:52.962Z,101329.31
2022-08-01T08:18:18.587Z,101336.81
2022-08-01T08:20:44.222Z,101339.59
2022-08-01T08:23:42.868Z,101339.59
2022-08-01T08:26:10.722Z,101341.53
2022-08-01T08:28:36.350Z,101352.34
2022-08-01T08:31:02.295Z,101342.09
2022-08-01T08:33:27.914Z,101348.47
2022-08-01T08:35:54.861Z,101352.34
2022-08-01T08:38:20.524Z,101345.13
2022-08-01T08:40:54.635Z,101357.88
2022-08-01T08:43:20.792Z,101350.41
2022-08-01T08:45:59.817Z,101345.97
2022-08-01T08:48:27.887Z,101351.50
2022-08-01T08:50:54.174Z,101353.47
2022-08-01T08:53:19.973Z,101354.28
2022-08-01T08:55:56.303Z,101360.13
2022-08-01T08:58:26.278Z,101359.31
2022-08-01T09:00:57.496Z,101366.50
2022-08-01T09:03:23.162Z,101360.13
2022-08-01T09:05:48.810Z,101368.16
2022-08-01T09:08:14.435Z,101355.41
2022-08-01T09:10:40.062Z,101360.66
2022-08-01T09:15:48.054Z,101355.97
2022-08-01T09:18:34.428Z,101360.66
2022-08-01T09:21:21.324Z,101358.75
2022-08-01T09:23:53.293Z,101355.09
2022-08-01T09:26:26.847Z,101367.06
2022-08-01T09:28:52.530Z,101374.53
2022-08-01T09:31:19.171Z,101364.56
2022-08-01T09:34:04.047Z,101369.28
2022-08-01T09:36:51.586Z,101369.00
2022-08-01T09:39:23.497Z,101365.38
2022-08-01T09:41:49.137Z,101366.22
2022-08-01T09:44:17.831Z,101370.66
2022-08-01T09:46:53.309Z,101367.34
2022-08-01T09:49:51.657Z,101372.91
2022-08-01T09:52:26.030Z,101372.91
2022-08-01T09:54:57.562Z,101370.13
2022-08-01T09:57:23.903Z,101372.91
2022-08-01T10:00:00.602Z,101366.22
2022-08-01T10:05:08.119Z,101375.66
2022-08-01T10:07:42.931Z,101373.72
2022-08-01T10:10:14.575Z,101366.50
2022-08-01T10:12:44.415Z,101364.56
2022-08-01T10:15:11.875Z,101365.38
2022-08-01T10:17:50.793Z,101356.25
2022-08-01T10:20:30.283Z,101358.19
2022-08-01T10:22:59.785Z,101364.56
2022-08-01T10:25:42.444Z,101364.56
2022-08-01T10:28:17.903Z,101368.16
2022-08-01T10:30:44.523Z,101357.06
2022-08-01T10:33:15.264Z,101364.56
2022-08-01T10:35:58.704Z,101357.06
2022-08-01T10:38:27.651Z,101353.47
2022-08-01T10:40:54.434Z,101368.16
2022-08-01T10:43:21.487Z,101367.34
2022-08-01T10:45:48.094Z,101369.00
2022-08-01T10:48:53.718Z,101370.13
2022-08-01T10:51:21.530Z,101381.22
2022-08-01T10:53:50.294Z,101369.00
2022-08-01T10:56:21.815Z,101368.16
2022-08-01T10:59:02.160Z,101363.44
2022-08-01T11:01:32.957Z,101359.31
2022-08-01T11:04:04.270Z,101364.00
2022-08-01T11:12:01.099Z,101366.91
2022-08-01T11:14:53.628Z,101362.84
2022-08-01T11:17:37.895Z,101359.06
2022-08-01T11:28:31.945Z,101360.75
2022-08-01T11:36:56.874Z,101349.97
2022-08-01T11:39:14.220Z,101340.81
2022-08-01T11:41:40.959Z,101335.28
2022-08-01T11:44:25.470Z,101337.47
2022-08-01T11:47:10.579Z,101340.72
2022-08-01T11:52:23.739Z,101339.63
2022-08-01T11:54:53.722Z,101341.03
2022-08-01T11:57:36.114Z,101343.44
2022-08-01T12:00:08.473Z,101341.53
2022-08-01T12:02:35.239Z,101340.19
2022-08-01T12:05:12.365Z,101349.91
2022-08-01T12:07:39.776Z,101353.50
2022-08-01T12:10:10.649Z,101347.13
2022-08-01T12:12:37.939Z,101356.59
2022-08-01T12:15:07.159Z,101350.53
2022-08-01T12:17:39.032Z,101351.34
2022-08-01T12:20:07.124Z,101351.56
2022-08-01T12:22:33.573Z,101351.28
2022-08-01T12:25:08.526Z,101342.97
2022-08-01T12:27:34.570Z,101340.47
2022-08-01T12:30:00.779Z,101335.47
2022-08-01T12:35:08.150Z,101336.25
2022-08-01T12:37:36.343Z,101342.97
2022-08-01T12:40:02.810Z,101341.84
2022-08-01T12:42:28.663Z,101341.31
2022-08-01T12:44:55.071Z,101347.69
2022-08-01T12:47:21.346Z,101340.47
2022-08-01T12:49:47.681Z,101346.50
2022-08-01T12:52:13.533Z,101345.69
2022-08-01T12:55:03.298Z,101350.72
2022-08-01T12:57:32.675Z,101338.53
2022-08-01T13:00:15.227Z,101350.22
2022-08-01T13:02:41.451Z,101354.59
2022-08-01T13:05:09.012Z,101350.41
2022-08-01T13:07:45.722Z,101356.53
2022-08-01T13:10:12.492Z,101354.31
2022-08-01T13:12:39.358Z,101349.72
2022-08-01T13:15:24.305Z,101353.28
2022-08-01T13:17:51.334Z,101351.31
2022-08-01T13:22:50.753Z,101353.53
2022-08-01T13:25:19.880Z,101351.28
2022-08-01T13:27:53.576Z,101355.72
2022-08-01T13:30:20.376Z,101355.72
2022-08-01T13:33:01.770Z,101354.28
2022-08-01T13:35:27.527Z,101350.69
2022-08-01T13:37:53.311Z,101359.00
2022-08-01T13:40:27.184Z,101345.97
2022-08-01T13:42:54.995Z,101349.56
2022-08-01T13:45:22.199Z,101349.56
2022-08-01T13:48:11.837Z,101351.22
2022-08-01T13:50:34.243Z,101356.78
2022-08-01T13:52:59.870Z,101353.72
2022-08-01T13:55:25.495Z,101352.88
2022-08-01T13:57:51.133Z,101360.09
2022-08-01T14:00:16.932Z,101358.94
2022-08-01T14:02:42.572Z,101359.81
2022-08-01T14:05:08.362Z,101360.63
2022-08-01T14:07:34.042Z,101364.22
2022-08-01T14:10:18.606Z,101355.09
2022-08-01T14:12:45.752Z,101353.41
2022-08-01T14:15:11.599Z,101352.31
2022-08-01T14:17:37.776Z,101352.31
2022-08-01T14:20:05.344Z,101355.09
2022-08-01T14:22:31.000Z,101357.03
2022-08-01T14:25:00.913Z,101355.91
2022-08-01T14:27:30.280Z,101363.41
2022-08-01T14:30:02.934Z,101362.28
2022-08-01T14:32:29.798Z,101367.84
2022-08-01T14:34:56.692Z,101358.38
2022-08-01T14:37:22.475Z,101356.72
2022-08-01T14:39:54.850Z,101362.28
2022-08-01T14:42:20.482Z,101353.94
2022-08-01T14:44:46.627Z,101353.94
2022-08-01T14:47:22.140Z,101357.56
2022-08-01T14:49:48.403Z,101358.38
2022-08-01T14:52:14.092Z,101356.72
2022-08-01T14:54:39.729Z,101350.34
2022-08-01T14:57:05.362Z,101358.38
2022-08-01T14:59:30.988Z,101359.50
2022-08-01T15:01:56.617Z,101363.94
2022-08-01T15:04:22.566Z,101363.09
2022-08-01T15:06:48.281Z,101358.38
2022-08-01T15:09:13.907Z,101367.53
2022-08-01T15:11:39.544Z,101361.16
2022-08-01T15:14:25.136Z,101369.47
2022-08-01T15:16:50.782Z,101361.16
2022-08-01T15:19:17.702Z,101366.69
2022-08-01T15:21:43.465Z,101370.31
2022-08-01T15:24:09.519Z,101379.47
2022-08-01T15:26:35.377Z,101377.53
2022-08-01T15:29:01.335Z,101373.91
2022-08-01T15:31:26.980Z,101376.69
2022-08-01T15:33:53.465Z,101381.41
2022-08-01T15:36:19.120Z,101385.00
2022-08-01T15:38:51.500Z,101384.19
2022-08-01T15:41:17.214Z,101383.38
2022-08-01T15:43:44.875Z,101383.09
2022-08-01T15:46:10.685Z,101385.88
2022-08-01T15:48:39.927Z,101387.78
2022-08-01T15:51:05.925Z,101387.78
2022-08-01T15:53:31.554Z,101394.19
2022-08-01T15:55:57.824Z,101399.75
2022-08-01T15:58:23.454Z,101394.19
2022-08-01T16:00:49.086Z,101396.13
2022-08-01T16:03:14.722Z,101397.78
2022-08-01T16:05:43.811Z,101396.97
2022-08-01T16:08:11.189Z,101383.09
2022-08-01T16:10:36.824Z,101388.63
2022-08-01T16:13:07.091Z,101395.03
2022-08-01T16:15:36.563Z,101395.03
2022-08-01T16:18:05.490Z,101396.97
2022-08-01T16:20:31.202Z,101395.03
2022-08-01T16:22:56.836Z,101389.47
2022-08-01T16:25:22.615Z,101393.34
2022-08-01T16:27:48.248Z,101388.63
2022-08-01T16:30:13.916Z,101387.78
2022-08-01T16:32:40.811Z,101396.97
2022-08-01T16:35:15.266Z,101399.75
2022-08-01T16:37:40.913Z,101389.47
2022-08-01T16:40:06.784Z,101389.47
2022-08-01T16:42:32.456Z,101393.06
2022-08-01T16:44:59.403Z,101392.25
2022-08-01T16:47:25.124Z,101391.13
2022-08-01T16:49:50.762Z,101387.50
2022-08-01T16:52:16.395Z,101383.91
2022-08-01T16:54:42.021Z,101391.41
2022-08-01T16:57:08.425Z,101385.88
2022-08-01T16:59:35.292Z,101388.34
2022-08-01T17:02:07.435Z,101381.13
2022-08-01T17:04:33.081Z,101385.88
2022-08-01T17:06:58.774Z,101390.28
2022-08-01T17:09:24.727Z,101393.06
2022-08-01T17:11:50.600Z,101388.34
2022-08-01T17:14:17.031Z,101387.50
2022-08-01T17:16:42.667Z,101392.25
2022-08-01T17:19:08.321Z,101392.25
2022-08-01T17:21:34.079Z,101387.50
2022-08-01T17:23:59.718Z,101398.63
2022-08-01T17:26:25.704Z,101397.78
2022-08-01T17:28:51.338Z,101401.38
2022-08-01T17:31:16.979Z,101406.13
2022-08-01T17:33:46.028Z,101397.78
2022-08-01T17:36:14.099Z,101397.50
2022-08-01T17:38:39.784Z,101401.38
2022-08-01T17:41:05.412Z,101402.22
2022-08-01T17:43:31.031Z,101393.88
2022-08-01T17:45:56.784Z,101393.88
2022-08-01T17:48:22.409Z,101397.50
2022-08-01T17:50:48.481Z,101390.28
2022-08-01T17:53:15.355Z,101386.38
2022-08-01T17:55:53.932Z,101387.50
2022-08-01T17:58:49.102Z,101388.34
2022-08-01T18:01:10.135Z,101393.06
2022-08-01T18:03:41.012Z,101395.84
2022-08-01T18:06:08.278Z,101395.84
2022-08-01T18:08:34.417Z,101404.16
2022-08-01T18:11:00.104Z,101411.38
2022-08-01T18:13:25.726Z,101409.41
2022-08-01T18:15:51.811Z,101401.38
2022-08-01T18:18:19.263Z,101400.25
2022-08-01T18:20:58.501Z,101409.72
2022-08-01T18:23:24.154Z,101412.50
2022-08-01T18:25:49.785Z,101420.81
2022-08-01T18:28:19.633Z,101415.28
2022-08-01T18:30:56.871Z,101416.09
2022-08-01T18:33:22.871Z,101418.88
2022-08-01T18:35:52.259Z,101416.91
2022-08-01T18:38:19.488Z,101416.09
2022-08-01T18:40:45.745Z,101420.81
2022-08-01T18:43:11.938Z,101431.63
2022-08-01T18:45:42.572Z,101432.75
2022-08-01T18:48:08.920Z,101433.59
2022-08-01T18:50:34.568Z,101435.22
2022-08-01T18:53:00.187Z,101433.59
2022-08-01T18:55:25.812Z,101427.22
2022-08-01T18:57:51.469Z,101437.19
2022-08-01T19:00:17.147Z,101431.63
2022-08-01T19:02:42.777Z,101436.34
2022-08-01T19:05:09.097Z,101436.34
2022-08-01T19:08:04.547Z,101441.91
2022-08-01T19:10:20.477Z,101444.69
2022-08-01T19:12:46.097Z,101449.41
2022-08-01T19:15:11.977Z,101449.13
2022-08-01T19:17:37.614Z,101449.41
2022-08-01T19:20:03.628Z,101447.47
2022-08-01T19:22:29.258Z,101452.19
2022-08-01T19:24:54.888Z,101454.97
2022-08-01T19:27:23.869Z,101460.22
2022-08-01T19:29:52.878Z,101473.28
2022-08-01T19:32:18.548Z,101466.06
2022-08-01T19:34:53.821Z,101468.53
2022-08-01T19:37:22.959Z,101471.63
2022-08-01T19:39:51.230Z,101464.13
2022-08-01T19:42:17.066Z,101472.44
2022-08-01T19:44:43.632Z,101473.28
2022-08-01T19:47:09.842Z,101478.00
2022-08-01T19:49:35.841Z,101481.59
2022-08-01T19:52:02.257Z,101476.06
2022-08-01T19:54:36.595Z,101472.44
2022-08-01T19:57:04.557Z,101479.94
2022-08-01T19:59:31.986Z,101483.56
2022-08-01T20:01:58.524Z,101489.94
2022-08-01T20:04:25.425Z,101492.72
2022-08-01T20:06:51.733Z,101489.94
2022-08-01T20:09:17.401Z,101503.00
2022-08-01T20:11:44.981Z,101494.66
2022-08-01T20:14:14.044Z,101503.81
2022-08-01T20:16:39.709Z,101502.16
2022-08-01T20:19:05.393Z,101506.59
2022-08-01T20:21:32.177Z,101504.94
2022-08-01T20:24:02.695Z,101506.59
2022-08-01T20:26:29.521Z,101510.19
2022-08-01T20:28:55.754Z,101509.38
2022-08-01T20:31:26.210Z,101503.81
2022-08-01T20:33:55.390Z,101509.38
2022-08-01T20:36:24.989Z,101512.16
2022-08-01T20:38:53.837Z,101506.59
2022-08-01T20:41:22.797Z,101495.50
2022-08-01T20:43:52.488Z,101503.81
2022-08-01T20:46:19.460Z,101503.81
2022-08-01T20:48:46.593Z,101509.38
2022-08-01T20:51:15.346Z,101506.59
2022-08-01T20:53:44.915Z,101509.38
2022-08-01T20:56:37.097Z,101507.72
2022-08-01T20:59:06.003Z,101512.97
2022-08-01T21:01:38.974Z,101512.16
2022-08-01T21:06:53.211Z,101514.91
2022-08-01T21:09:22.134Z,101509.38
2022-08-01T21:12:02.335Z,101503.00
2022-08-01T21:14:51.654Z,101511.31
2022-08-01T21:17:24.398Z,101506.91
2022-08-01T21:19:53.647Z,101512.16
2022-08-01T21:22:41.321Z,101514.09
2022-08-01T21:25:10.083Z,101513.28
2022-08-01T21:27:36.621Z,101509.38
2022-08-01T21:30:06.690Z,101508.53
2022-08-01T21:32:33.670Z,101504.13
2022-08-01T21:35:00.082Z,101512.16
2022-08-01T21:37:26.288Z,101513.28
2022-08-01T21:39:53.065Z,101515.75
2022-08-01T21:42:19.414Z,101513.28
2022-08-01T21:44:46.429Z,101512.16
2022-08-01T21:47:13.485Z,101505.75
2022-08-01T21:49:40.734Z,101511.31
2022-08-01T21:52:17.346Z,101512.16
2022-08-01T21:54:53.629Z,101504.94
2022-08-01T21:57:44.986Z,101514.09
2022-08-01T22:00:25.784Z,101524.06
2022-08-01T22:03:20.548Z,101515.22
2022-08-01T22:05:50.188Z,101514.91
2022-08-01T22:08:22.758Z,101518.81
2022-08-01T22:10:56.434Z,101522.44
2022-08-01T22:13:22.682Z,101533.53
2022-08-01T22:15:49.079Z,101531.59
2022-08-01T22:18:14.823Z,101527.97
2022-08-01T22:20:40.490Z,101525.19
2022-08-01T22:23:06.134Z,101522.44
2022-08-01T22:25:32.666Z,101523.25
2022-08-01T22:28:08.737Z,101526.84
2022-08-01T22:30:40.743Z,101523.25
2022-08-01T22:33:16.911Z,101530.75
2022-08-01T22:35:48.086Z,101527.16
2022-08-01T22:38:15.970Z,101522.44
2022-08-01T22:40:49.401Z,101519.66
2022-08-01T22:43:38.811Z,101520.47
2022-08-01T22:46:28.786Z,101519.66
2022-08-01T22:52:23.961Z,101514.91
2022-08-01T22:54:51.219Z,101504.94
2022-08-01T22:57:26.518Z,101514.09
2022-08-01T23:00:01.263Z,101508.53
2022-08-01T23:02:30.335Z,101511.31
2022-08-01T23:05:01.030Z,101513.28
2022-08-01T23:07:31.795Z,101502.16
2022-08-01T23:09:57.710Z,101502.16
2022-08-01T23:12:24.854Z,101508.53
2022-08-01T23:14:53.002Z,101513.28
2022-08-01T23:17:27.547Z,101516.03
2022-08-01T23:19:56.539Z,101513.28
2022-08-01T23:22:23.065Z,101513.28
2022-08-01T23:25:03.625Z,101514.09
2022-08-01T23:27:54.177Z,101511.31
2022-08-01T23:30:17.094Z,101509.38
2022-08-01T23:32:42.724Z,101505.75
2022-08-01T23:35:08.726Z,101510.50
2022-08-01T23:37:34.384Z,101511.31
2022-08-01T23:40:00.069Z,101516.88
2022-08-01T23:42:25.822Z,101513.28
2022-08-01T23:44:54.997Z,101516.88
2022-08-01T23:47:21.225Z,101514.09
2022-08-01T23:49:53.230Z,101513.28
2022-08-01T23:52:20.662Z,101518.00
2022-08-01T23:54:47.365Z,101519.94
2022-08-01T23:57:14.857Z,101521.59
2022-08-01T23:59:53.738Z,101527.16
